sensor_id;sensor_type;location;lat;lon;timestamp;P1;durP1;ratioP1;P2;durP2;ratioP2
16839;SDS011;8536;52.150;11.572;2022-12-19T00:01:33;21.10;;;10.93;;
16839;SDS011;8536;52.150;11.572;2022-12-19T00:04:02;19.10;;;10.53;;
16839;SDS011;8536;52.150;11.572;2022-12-19T00:06:34;19.73;;;11.50;;
16839;SDS011;8536;52.150;11.572;2022-12-19T00:09:02;18.97;;;10.33;;
16839;SDS011;8536;52.150;11.572;2022-12-19T00:11:28;20.90;;;11.17;;
16839;SDS011;8536;52.150;11.572;2022-12-19T00:13:55;23.63;;;11.77;;
16839;SDS011;8536;52.150;11.572;2022-12-19T00:16:23;19.90;;;11.43;;
16839;SDS011;8536;52.150;11.572;2022-12-19T00:18:56;22.40;;;11.43;;
16839;SDS011;8536;52.150;11.572;2022-12-19T00:21:25;20.70;;;10.67;;
16839;SDS011;8536;52.150;11.572;2022-12-19T00:23:53;22.70;;;11.43;;
16839;SDS011;8536;52.150;11.572;2022-12-19T00:26:24;22.70;;;11.63;;
16839;SDS011;8536;52.150;11.572;2022-12-19T00:28:53;19.00;;;11.27;;
16839;SDS011;8536;52.150;11.572;2022-12-19T00:31:22;23.60;;;10.77;;
16839;SDS011;8536;52.150;11.572;2022-12-19T00:33:49;21.50;;;11.50;;
16839;SDS011;8536;52.150;11.572;2022-12-19T00:36:20;19.70;;;10.53;;
16839;SDS011;8536;52.150;11.572;2022-12-19T00:38:48;21.07;;;10.57;;
16839;SDS011;8536;52.150;11.572;2022-12-19T00:41:17;19.83;;;11.17;;
16839;SDS011;8536;52.150;11.572;2022-12-19T00:43:44;20.47;;;10.57;;
16839;SDS011;8536;52.150;11.572;2022-12-19T00:46:14;16.10;;;9.53;;
16839;SDS011;8536;52.150;11.572;2022-12-19T00:48:41;18.90;;;10.03;;
16839;SDS011;8536;52.150;11.572;2022-12-19T00:51:12;18.67;;;9.97;;
16839;SDS011;8536;52.150;11.572;2022-12-19T00:53:39;19.47;;;10.17;;
16839;SDS011;8536;52.150;11.572;2022-12-19T00:56:07;17.07;;;9.50;;
16839;SDS011;8536;52.150;11.572;2022-12-19T00:58:35;18.50;;;10.43;;
16839;SDS011;8536;52.150;11.572;2022-12-19T01:01:04;16.63;;;9.07;;
16839;SDS011;8536;52.150;11.572;2022-12-19T01:03:34;17.50;;;9.10;;
16839;SDS011;8536;52.150;11.572;2022-12-19T01:06:01;16.87;;;8.67;;
16839;SDS011;8536;52.150;11.572;2022-12-19T01:08:27;17.73;;;9.67;;
16839;SDS011;8536;52.150;11.572;2022-12-19T01:10:55;19.07;;;9.73;;
16839;SDS011;8536;52.150;11.572;2022-12-19T01:13:22;15.90;;;8.57;;
16839;SDS011;8536;52.150;11.572;2022-12-19T01:15:49;15.40;;;8.77;;
16839;SDS011;8536;52.150;11.572;2022-12-19T01:18:16;14.43;;;9.37;;
16839;SDS011;8536;52.150;11.572;2022-12-19T01:20:43;16.70;;;8.97;;
16839;SDS011;8536;52.150;11.572;2022-12-19T01:23:13;14.47;;;9.00;;
16839;SDS011;8536;52.150;11.572;2022-12-19T01:25:41;17.37;;;9.50;;
16839;SDS011;8536;52.150;11.572;2022-12-19T01:28:12;15.50;;;8.97;;
16839;SDS011;8536;52.150;11.572;2022-12-19T01:30:40;17.53;;;9.60;;
16839;SDS011;8536;52.150;11.572;2022-12-19T01:33:11;15.17;;;8.47;;
16839;SDS011;8536;52.150;11.572;2022-12-19T01:35:39;18.40;;;9.67;;
16839;SDS011;8536;52.150;11.572;2022-12-19T01:38:06;17.73;;;9.63;;
16839;SDS011;8536;52.150;11.572;2022-12-19T01:40:35;14.27;;;8.27;;
16839;SDS011;8536;52.150;11.572;2022-12-19T01:43:03;18.40;;;9.03;;
16839;SDS011;8536;52.150;11.572;2022-12-19T01:45:30;14.43;;;8.97;;
16839;SDS011;8536;52.150;11.572;2022-12-19T01:48:19;18.07;;;8.67;;
16839;SDS011;8536;52.150;11.572;2022-12-19T01:50:52;15.17;;;8.33;;
16839;SDS011;8536;52.150;11.572;2022-12-19T01:53:29;17.90;;;9.37;;
16839;SDS011;8536;52.150;11.572;2022-12-19T01:56:14;14.13;;;8.27;;
16839;SDS011;8536;52.150;11.572;2022-12-19T01:58:43;14.13;;;8.60;;
16839;SDS011;8536;52.150;11.572;2022-12-19T02:01:13;15.87;;;8.53;;
16839;SDS011;8536;52.150;11.572;2022-12-19T02:03:40;18.07;;;9.40;;
16839;SDS011;8536;52.150;11.572;2022-12-19T02:06:07;15.40;;;8.20;;
16839;SDS011;8536;52.150;11.572;2022-12-19T02:08:34;14.37;;;8.43;;
16839;SDS011;8536;52.150;11.572;2022-12-19T02:11:01;18.53;;;8.63;;
16839;SDS011;8536;52.150;11.572;2022-12-19T02:13:28;16.17;;;8.93;;
16839;SDS011;8536;52.150;11.572;2022-12-19T02:16:15;15.70;;;8.23;;
16839;SDS011;8536;52.150;11.572;2022-12-19T02:27:08;12.30;;;8.03;;
16839;SDS011;8536;52.150;11.572;2022-12-19T02:30:01;13.00;;;7.63;;
16839;SDS011;8536;52.150;11.572;2022-12-19T02:32:43;13.53;;;8.33;;
16839;SDS011;8536;52.150;11.572;2022-12-19T02:35:15;15.80;;;7.83;;
16839;SDS011;8536;52.150;11.572;2022-12-19T02:40:39;14.40;;;8.03;;
16839;SDS011;8536;52.150;11.572;2022-12-19T02:43:09;12.90;;;7.27;;
16839;SDS011;8536;52.150;11.572;2022-12-19T02:45:38;14.97;;;8.20;;
16839;SDS011;8536;52.150;11.572;2022-12-19T02:48:04;15.53;;;8.33;;
16839;SDS011;8536;52.150;11.572;2022-12-19T02:50:35;10.67;;;7.23;;
16839;SDS011;8536;52.150;11.572;2022-12-19T02:53:11;15.00;;;7.90;;
16839;SDS011;8536;52.150;11.572;2022-12-19T02:55:50;12.33;;;7.23;;
16839;SDS011;8536;52.150;11.572;2022-12-19T03:04:12;14.30;;;7.60;;
16839;SDS011;8536;52.150;11.572;2022-12-19T03:09:28;13.33;;;7.37;;
16839;SDS011;8536;52.150;11.572;2022-12-19T03:12:02;12.83;;;7.50;;
16839;SDS011;8536;52.150;11.572;2022-12-19T03:14:37;13.07;;;6.47;;
16839;SDS011;8536;52.150;11.572;2022-12-19T03:17:04;11.57;;;7.03;;
16839;SDS011;8536;52.150;11.572;2022-12-19T03:19:32;13.13;;;7.30;;
16839;SDS011;8536;52.150;11.572;2022-12-19T03:22:00;11.43;;;6.87;;
16839;SDS011;8536;52.150;11.572;2022-12-19T03:24:26;11.23;;;6.70;;
16839;SDS011;8536;52.150;11.572;2022-12-19T03:26:55;11.17;;;6.97;;
16839;SDS011;8536;52.150;11.572;2022-12-19T03:29:27;14.27;;;7.03;;
16839;SDS011;8536;52.150;11.572;2022-12-19T03:31:56;12.07;;;6.97;;
16839;SDS011;8536;52.150;11.572;2022-12-19T03:36:54;11.53;;;7.00;;
16839;SDS011;8536;52.150;11.572;2022-12-19T03:39:22;11.37;;;6.90;;
16839;SDS011;8536;52.150;11.572;2022-12-19T03:41:50;11.83;;;7.00;;
16839;SDS011;8536;52.150;11.572;2022-12-19T03:44:37;11.87;;;6.60;;
16839;SDS011;8536;52.150;11.572;2022-12-19T03:49:40;10.93;;;6.90;;
16839;SDS011;8536;52.150;11.572;2022-12-19T03:55:07;14.80;;;7.63;;
16839;SDS011;8536;52.150;11.572;2022-12-19T03:58:14;8.37;;;6.27;;
16839;SDS011;8536;52.150;11.572;2022-12-19T04:00:44;10.03;;;5.63;;
16839;SDS011;8536;52.150;11.572;2022-12-19T04:03:12;10.63;;;6.10;;
16839;SDS011;8536;52.150;11.572;2022-12-19T04:05:41;12.57;;;7.03;;
16839;SDS011;8536;52.150;11.572;2022-12-19T04:08:08;8.07;;;5.97;;
16839;SDS011;8536;52.150;11.572;2022-12-19T04:10:45;10.37;;;6.93;;
16839;SDS011;8536;52.150;11.572;2022-12-19T04:13:14;13.10;;;7.30;;
16839;SDS011;8536;52.150;11.572;2022-12-19T04:15:54;10.97;;;6.70;;
16839;SDS011;8536;52.150;11.572;2022-12-19T04:18:52;12.10;;;6.20;;
16839;SDS011;8536;52.150;11.572;2022-12-19T04:21:24;11.53;;;6.60;;
16839;SDS011;8536;52.150;11.572;2022-12-19T04:23:56;12.17;;;6.33;;
16839;SDS011;8536;52.150;11.572;2022-12-19T04:26:26;10.60;;;6.00;;
16839;SDS011;8536;52.150;11.572;2022-12-19T04:28:54;7.33;;;5.40;;
16839;SDS011;8536;52.150;11.572;2022-12-19T04:31:24;9.60;;;5.87;;
16839;SDS011;8536;52.150;11.572;2022-12-19T04:33:50;12.37;;;6.03;;
16839;SDS011;8536;52.150;11.572;2022-12-19T04:36:17;9.43;;;6.03;;
16839;SDS011;8536;52.150;11.572;2022-12-19T04:38:43;12.07;;;6.93;;
16839;SDS011;8536;52.150;11.572;2022-12-19T04:41:10;10.93;;;6.73;;
16839;SDS011;8536;52.150;11.572;2022-12-19T04:43:37;9.77;;;6.50;;
16839;SDS011;8536;52.150;11.572;2022-12-19T04:46:03;10.87;;;7.13;;
16839;SDS011;8536;52.150;11.572;2022-12-19T04:48:30;9.13;;;6.07;;
16839;SDS011;8536;52.150;11.572;2022-12-19T04:50:57;11.07;;;7.00;;
16839;SDS011;8536;52.150;11.572;2022-12-19T04:53:23;12.60;;;7.20;;
16839;SDS011;8536;52.150;11.572;2022-12-19T04:55:49;10.17;;;6.53;;
16839;SDS011;8536;52.150;11.572;2022-12-19T04:58:16;11.70;;;6.73;;
16839;SDS011;8536;52.150;11.572;2022-12-19T05:00:47;9.20;;;6.37;;
16839;SDS011;8536;52.150;11.572;2022-12-19T05:03:13;10.70;;;6.20;;
16839;SDS011;8536;52.150;11.572;2022-12-19T05:05:40;10.70;;;6.37;;
16839;SDS011;8536;52.150;11.572;2022-12-19T05:08:07;11.90;;;7.13;;
16839;SDS011;8536;52.150;11.572;2022-12-19T05:10:34;11.50;;;6.77;;
16839;SDS011;8536;52.150;11.572;2022-12-19T05:13:01;10.13;;;6.30;;
16839;SDS011;8536;52.150;11.572;2022-12-19T05:15:28;13.87;;;7.10;;
16839;SDS011;8536;52.150;11.572;2022-12-19T05:17:54;12.30;;;6.63;;
16839;SDS011;8536;52.150;11.572;2022-12-19T05:20:22;12.40;;;7.40;;
16839;SDS011;8536;52.150;11.572;2022-12-19T05:22:49;8.67;;;5.93;;
16839;SDS011;8536;52.150;11.572;2022-12-19T05:25:15;12.83;;;6.90;;
16839;SDS011;8536;52.150;11.572;2022-12-19T05:27:42;11.27;;;6.90;;
16839;SDS011;8536;52.150;11.572;2022-12-19T05:30:08;8.97;;;5.60;;
16839;SDS011;8536;52.150;11.572;2022-12-19T05:32:35;10.70;;;6.77;;
16839;SDS011;8536;52.150;11.572;2022-12-19T05:35:01;14.07;;;7.17;;
16839;SDS011;8536;52.150;11.572;2022-12-19T05:37:28;11.50;;;6.67;;
16839;SDS011;8536;52.150;11.572;2022-12-19T05:39:54;11.03;;;6.63;;
16839;SDS011;8536;52.150;11.572;2022-12-19T05:42:21;13.67;;;7.03;;
16839;SDS011;8536;52.150;11.572;2022-12-19T05:44:47;12.63;;;7.00;;
16839;SDS011;8536;52.150;11.572;2022-12-19T05:47:13;11.53;;;6.73;;
16839;SDS011;8536;52.150;11.572;2022-12-19T05:49:40;11.90;;;6.87;;
16839;SDS011;8536;52.150;11.572;2022-12-19T05:52:06;11.50;;;7.10;;
16839;SDS011;8536;52.150;11.572;2022-12-19T05:54:33;12.03;;;7.13;;
16839;SDS011;8536;52.150;11.572;2022-12-19T05:56:59;12.37;;;7.40;;
16839;SDS011;8536;52.150;11.572;2022-12-19T05:59:26;10.30;;;6.40;;
16839;SDS011;8536;52.150;11.572;2022-12-19T06:01:53;11.47;;;6.63;;
16839;SDS011;8536;52.150;11.572;2022-12-19T06:04:20;11.87;;;7.10;;
16839;SDS011;8536;52.150;11.572;2022-12-19T06:06:46;11.70;;;7.27;;
16839;SDS011;8536;52.150;11.572;2022-12-19T06:09:12;12.63;;;6.73;;
16839;SDS011;8536;52.150;11.572;2022-12-19T06:11:39;13.30;;;7.30;;
16839;SDS011;8536;52.150;11.572;2022-12-19T06:14:05;11.67;;;7.07;;
16839;SDS011;8536;52.150;11.572;2022-12-19T06:16:32;10.27;;;6.57;;
16839;SDS011;8536;52.150;11.572;2022-12-19T06:18:58;12.13;;;7.53;;
16839;SDS011;8536;52.150;11.572;2022-12-19T06:21:25;10.47;;;6.83;;
16839;SDS011;8536;52.150;11.572;2022-12-19T06:23:51;11.00;;;6.83;;
16839;SDS011;8536;52.150;11.572;2022-12-19T06:26:18;11.57;;;6.87;;
16839;SDS011;8536;52.150;11.572;2022-12-19T06:28:49;13.17;;;7.20;;
16839;SDS011;8536;52.150;11.572;2022-12-19T06:31:17;10.77;;;6.57;;
16839;SDS011;8536;52.150;11.572;2022-12-19T06:33:45;12.13;;;6.87;;
16839;SDS011;8536;52.150;11.572;2022-12-19T06:36:15;10.23;;;6.67;;
16839;SDS011;8536;52.150;11.572;2022-12-19T06:38:43;12.00;;;6.73;;
16839;SDS011;8536;52.150;11.572;2022-12-19T06:41:10;11.47;;;7.00;;
16839;SDS011;8536;52.150;11.572;2022-12-19T06:44:02;13.83;;;6.80;;
16839;SDS011;8536;52.150;11.572;2022-12-19T06:46:30;11.13;;;7.23;;
16839;SDS011;8536;52.150;11.572;2022-12-19T06:48:57;11.17;;;7.03;;
16839;SDS011;8536;52.150;11.572;2022-12-19T06:51:23;10.37;;;6.63;;
16839;SDS011;8536;52.150;11.572;2022-12-19T06:53:50;9.57;;;6.97;;
16839;SDS011;8536;52.150;11.572;2022-12-19T06:56:16;10.87;;;6.97;;
16839;SDS011;8536;52.150;11.572;2022-12-19T06:58:43;10.60;;;6.40;;
16839;SDS011;8536;52.150;11.572;2022-12-19T07:01:17;11.83;;;6.90;;
16839;SDS011;8536;52.150;11.572;2022-12-19T07:03:44;11.43;;;7.53;;
16839;SDS011;8536;52.150;11.572;2022-12-19T07:06:11;11.80;;;6.73;;
16839;SDS011;8536;52.150;11.572;2022-12-19T07:08:38;10.80;;;6.83;;
16839;SDS011;8536;52.150;11.572;2022-12-19T07:11:05;12.40;;;7.77;;
16839;SDS011;8536;52.150;11.572;2022-12-19T07:13:31;11.50;;;6.83;;
16839;SDS011;8536;52.150;11.572;2022-12-19T07:15:58;10.70;;;7.30;;
16839;SDS011;8536;52.150;11.572;2022-12-19T07:18:27;12.97;;;7.50;;
16839;SDS011;8536;52.150;11.572;2022-12-19T07:20:55;13.17;;;7.47;;
16839;SDS011;8536;52.150;11.572;2022-12-19T07:23:21;13.00;;;6.87;;
16839;SDS011;8536;52.150;11.572;2022-12-19T07:25:48;13.77;;;8.00;;
16839;SDS011;8536;52.150;11.572;2022-12-19T07:28:15;13.80;;;7.93;;
16839;SDS011;8536;52.150;11.572;2022-12-19T07:30:41;14.10;;;8.07;;
16839;SDS011;8536;52.150;11.572;2022-12-19T07:33:08;12.57;;;8.17;;
16839;SDS011;8536;52.150;11.572;2022-12-19T07:35:37;13.33;;;8.10;;
16839;SDS011;8536;52.150;11.572;2022-12-19T07:38:05;15.83;;;8.70;;
16839;SDS011;8536;52.150;11.572;2022-12-19T07:40:32;12.43;;;7.83;;
16839;SDS011;8536;52.150;11.572;2022-12-19T07:43:03;14.77;;;9.37;;
16839;SDS011;8536;52.150;11.572;2022-12-19T07:45:31;14.83;;;8.97;;
16839;SDS011;8536;52.150;11.572;2022-12-19T07:47:58;18.80;;;10.73;;
16839;SDS011;8536;52.150;11.572;2022-12-19T07:50:26;24.47;;;11.93;;
16839;SDS011;8536;52.150;11.572;2022-12-19T07:52:52;21.57;;;10.57;;
16839;SDS011;8536;52.150;11.572;2022-12-19T07:55:19;17.03;;;10.10;;
16839;SDS011;8536;52.150;11.572;2022-12-19T07:57:45;19.30;;;10.70;;
16839;SDS011;8536;52.150;11.572;2022-12-19T08:00:12;15.07;;;9.27;;
16839;SDS011;8536;52.150;11.572;2022-12-19T08:02:39;17.30;;;12.13;;
16839;SDS011;8536;52.150;11.572;2022-12-19T08:05:06;15.83;;;10.13;;
16839;SDS011;8536;52.150;11.572;2022-12-19T08:07:32;30.70;;;18.97;;
16839;SDS011;8536;52.150;11.572;2022-12-19T08:09:59;28.30;;;17.43;;
16839;SDS011;8536;52.150;11.572;2022-12-19T08:12:25;12.27;;;9.03;;
16839;SDS011;8536;52.150;11.572;2022-12-19T08:14:52;13.40;;;7.80;;
16839;SDS011;8536;52.150;11.572;2022-12-19T08:17:22;13.73;;;8.37;;
16839;SDS011;8536;52.150;11.572;2022-12-19T08:19:49;14.77;;;8.47;;
16839;SDS011;8536;52.150;11.572;2022-12-19T08:22:15;14.87;;;8.87;;
16839;SDS011;8536;52.150;11.572;2022-12-19T08:24:42;16.07;;;9.40;;
16839;SDS011;8536;52.150;11.572;2022-12-19T08:27:08;15.47;;;8.37;;
16839;SDS011;8536;52.150;11.572;2022-12-19T08:29:35;14.07;;;9.30;;
16839;SDS011;8536;52.150;11.572;2022-12-19T08:32:01;15.40;;;10.60;;
16839;SDS011;8536;52.150;11.572;2022-12-19T08:34:28;18.03;;;11.83;;
16839;SDS011;8536;52.150;11.572;2022-12-19T08:36:54;13.13;;;9.30;;
16839;SDS011;8536;52.150;11.572;2022-12-19T08:39:21;21.07;;;13.30;;
16839;SDS011;8536;52.150;11.572;2022-12-19T08:41:47;13.93;;;8.93;;
16839;SDS011;8536;52.150;11.572;2022-12-19T08:44:14;13.30;;;10.23;;
16839;SDS011;8536;52.150;11.572;2022-12-19T08:46:41;17.97;;;11.00;;
16839;SDS011;8536;52.150;11.572;2022-12-19T08:49:15;30.00;;;19.83;;
16839;SDS011;8536;52.150;11.572;2022-12-19T08:51:41;25.77;;;17.17;;
16839;SDS011;8536;52.150;11.572;2022-12-19T08:54:08;19.27;;;12.37;;
16839;SDS011;8536;52.150;11.572;2022-12-19T08:56:37;25.43;;;17.47;;
16839;SDS011;8536;52.150;11.572;2022-12-19T08:59:11;30.13;;;17.83;;
16839;SDS011;8536;52.150;11.572;2022-12-19T09:01:38;26.50;;;15.83;;
16839;SDS011;8536;52.150;11.572;2022-12-19T09:04:05;33.43;;;18.90;;
16839;SDS011;8536;52.150;11.572;2022-12-19T09:06:51;29.03;;;17.57;;
16839;SDS011;8536;52.150;11.572;2022-12-19T09:09:18;41.63;;;25.87;;
16839;SDS011;8536;52.150;11.572;2022-12-19T09:11:44;80.90;;;42.57;;
16839;SDS011;8536;52.150;11.572;2022-12-19T09:14:13;49.93;;;27.57;;
16839;SDS011;8536;52.150;11.572;2022-12-19T09:16:45;69.80;;;36.57;;
16839;SDS011;8536;52.150;11.572;2022-12-19T09:19:12;38.60;;;21.50;;
16839;SDS011;8536;52.150;11.572;2022-12-19T09:21:40;18.57;;;10.83;;
16839;SDS011;8536;52.150;11.572;2022-12-19T09:24:07;19.30;;;10.80;;
16839;SDS011;8536;52.150;11.572;2022-12-19T09:26:34;15.80;;;9.67;;
16839;SDS011;8536;52.150;11.572;2022-12-19T09:29:01;13.73;;;10.03;;
16839;SDS011;8536;52.150;11.572;2022-12-19T09:31:33;16.93;;;10.73;;
16839;SDS011;8536;52.150;11.572;2022-12-19T09:33:59;16.13;;;10.23;;
16839;SDS011;8536;52.150;11.572;2022-12-19T09:36:26;14.80;;;9.57;;
16839;SDS011;8536;52.150;11.572;2022-12-19T09:38:53;16.27;;;9.73;;
16839;SDS011;8536;52.150;11.572;2022-12-19T09:41:38;15.43;;;9.63;;
16839;SDS011;8536;52.150;11.572;2022-12-19T09:47:15;18.87;;;9.83;;
16839;SDS011;8536;52.150;11.572;2022-12-19T09:49:43;21.37;;;10.50;;
16839;SDS011;8536;52.150;11.572;2022-12-19T09:57:28;15.23;;;9.30;;
16839;SDS011;8536;52.150;11.572;2022-12-19T10:00:00;20.87;;;9.93;;
16839;SDS011;8536;52.150;11.572;2022-12-19T10:02:40;17.70;;;9.53;;
16839;SDS011;8536;52.150;11.572;2022-12-19T10:05:18;18.87;;;11.07;;
16839;SDS011;8536;52.150;11.572;2022-12-19T10:08:21;19.10;;;10.40;;
16839;SDS011;8536;52.150;11.572;2022-12-19T10:10:56;16.60;;;9.53;;
16839;SDS011;8536;52.150;11.572;2022-12-19T10:25:27;15.57;;;9.70;;
16839;SDS011;8536;52.150;11.572;2022-12-19T10:28:04;18.60;;;9.80;;
16839;SDS011;8536;52.150;11.572;2022-12-19T10:31:10;17.00;;;10.57;;
16839;SDS011;8536;52.150;11.572;2022-12-19T10:36:26;17.37;;;10.00;;
16839;SDS011;8536;52.150;11.572;2022-12-19T10:39:20;18.67;;;10.97;;
16839;SDS011;8536;52.150;11.572;2022-12-19T10:41:54;15.90;;;10.20;;
16839;SDS011;8536;52.150;11.572;2022-12-19T10:44:25;15.10;;;9.73;;
16839;SDS011;8536;52.150;11.572;2022-12-19T10:46:53;21.87;;;11.27;;
16839;SDS011;8536;52.150;11.572;2022-12-19T10:49:20;14.53;;;9.80;;
16839;SDS011;8536;52.150;11.572;2022-12-19T10:52:00;16.07;;;10.00;;
16839;SDS011;8536;52.150;11.572;2022-12-19T10:57:18;14.57;;;9.50;;
16839;SDS011;8536;52.150;11.572;2022-12-19T11:08:00;21.60;;;11.37;;
16839;SDS011;8536;52.150;11.572;2022-12-19T11:10:38;17.17;;;10.23;;
16839;SDS011;8536;52.150;11.572;2022-12-19T11:16:22;18.17;;;10.90;;
16839;SDS011;8536;52.150;11.572;2022-12-19T11:19:21;21.47;;;11.43;;
16839;SDS011;8536;52.150;11.572;2022-12-19T11:22:20;21.53;;;12.57;;
16839;SDS011;8536;52.150;11.572;2022-12-19T11:25:13;20.70;;;11.20;;
16839;SDS011;8536;52.150;11.572;2022-12-19T11:28:02;21.77;;;12.57;;
16839;SDS011;8536;52.150;11.572;2022-12-19T11:33:52;25.23;;;15.17;;
16839;SDS011;8536;52.150;11.572;2022-12-19T11:36:32;17.30;;;12.80;;
16839;SDS011;8536;52.150;11.572;2022-12-19T11:39:34;19.47;;;11.17;;
16839;SDS011;8536;52.150;11.572;2022-12-19T11:47:53;15.77;;;10.57;;
16839;SDS011;8536;52.150;11.572;2022-12-19T11:50:26;18.50;;;11.33;;
16839;SDS011;8536;52.150;11.572;2022-12-19T11:52:55;20.40;;;12.77;;
16839;SDS011;8536;52.150;11.572;2022-12-19T11:55:53;20.80;;;10.90;;
16839;SDS011;8536;52.150;11.572;2022-12-19T11:58:22;20.03;;;10.67;;
16839;SDS011;8536;52.150;11.572;2022-12-19T12:00:57;20.07;;;12.97;;
16839;SDS011;8536;52.150;11.572;2022-12-19T12:03:44;17.77;;;10.60;;
16839;SDS011;8536;52.150;11.572;2022-12-19T12:06:30;19.70;;;11.27;;
16839;SDS011;8536;52.150;11.572;2022-12-19T12:12:18;16.63;;;10.50;;
16839;SDS011;8536;52.150;11.572;2022-12-19T12:35:44;18.27;;;11.37;;
16839;SDS011;8536;52.150;11.572;2022-12-19T12:41:30;17.93;;;11.73;;
16839;SDS011;8536;52.150;11.572;2022-12-19T12:44:22;18.50;;;12.20;;
16839;SDS011;8536;52.150;11.572;2022-12-19T12:47:18;19.90;;;11.93;;
16839;SDS011;8536;52.150;11.572;2022-12-19T12:49:47;20.57;;;11.63;;
16839;SDS011;8536;52.150;11.572;2022-12-19T12:52:17;20.60;;;11.90;;
16839;SDS011;8536;52.150;11.572;2022-12-19T12:54:46;19.40;;;11.90;;
16839;SDS011;8536;52.150;11.572;2022-12-19T12:57:16;18.70;;;10.60;;
16839;SDS011;8536;52.150;11.572;2022-12-19T12:59:44;20.67;;;11.90;;
16839;SDS011;8536;52.150;11.572;2022-12-19T13:02:13;22.23;;;11.87;;
16839;SDS011;8536;52.150;11.572;2022-12-19T13:04:57;19.17;;;10.50;;
16839;SDS011;8536;52.150;11.572;2022-12-19T13:07:31;16.53;;;9.97;;
16839;SDS011;8536;52.150;11.572;2022-12-19T13:10:13;18.17;;;11.40;;
16839;SDS011;8536;52.150;11.572;2022-12-19T13:12:59;19.43;;;11.03;;
16839;SDS011;8536;52.150;11.572;2022-12-19T13:15:36;17.40;;;10.90;;
16839;SDS011;8536;52.150;11.572;2022-12-19T13:23:43;18.27;;;10.80;;
16839;SDS011;8536;52.150;11.572;2022-12-19T13:26:03;18.80;;;10.37;;
16839;SDS011;8536;52.150;11.572;2022-12-19T13:39:46;16.23;;;10.70;;
16839;SDS011;8536;52.150;11.572;2022-12-19T13:42:37;18.07;;;10.27;;
16839;SDS011;8536;52.150;11.572;2022-12-19T13:45:58;16.93;;;11.13;;
16839;SDS011;8536;52.150;11.572;2022-12-19T13:48:29;18.07;;;11.20;;
16839;SDS011;8536;52.150;11.572;2022-12-19T13:50:56;16.90;;;10.77;;
16839;SDS011;8536;52.150;11.572;2022-12-19T13:53:27;21.13;;;11.47;;
16839;SDS011;8536;52.150;11.572;2022-12-19T13:56:16;21.00;;;10.93;;
16839;SDS011;8536;52.150;11.572;2022-12-19T13:58:45;20.03;;;11.20;;
16839;SDS011;8536;52.150;11.572;2022-12-19T14:01:13;17.67;;;11.37;;
16839;SDS011;8536;52.150;11.572;2022-12-19T14:03:47;19.03;;;10.87;;
16839;SDS011;8536;52.150;11.572;2022-12-19T14:06:26;17.23;;;11.23;;
16839;SDS011;8536;52.150;11.572;2022-12-19T14:08:59;19.10;;;11.47;;
16839;SDS011;8536;52.150;11.572;2022-12-19T14:11:47;16.53;;;11.03;;
16839;SDS011;8536;52.150;11.572;2022-12-19T14:14:35;16.73;;;11.33;;
16839;SDS011;8536;52.150;11.572;2022-12-19T14:17:39;20.60;;;11.60;;
16839;SDS011;8536;52.150;11.572;2022-12-19T14:20:16;16.60;;;11.07;;
16839;SDS011;8536;52.150;11.572;2022-12-19T14:23:09;18.23;;;10.93;;
16839;SDS011;8536;52.150;11.572;2022-12-19T14:25:41;19.57;;;11.33;;
16839;SDS011;8536;52.150;11.572;2022-12-19T14:28:47;17.87;;;11.07;;
16839;SDS011;8536;52.150;11.572;2022-12-19T14:31:20;16.27;;;10.13;;
16839;SDS011;8536;52.150;11.572;2022-12-19T14:33:49;16.77;;;11.27;;
16839;SDS011;8536;52.150;11.572;2022-12-19T14:36:37;15.73;;;10.50;;
16839;SDS011;8536;52.150;11.572;2022-12-19T14:39:05;17.23;;;11.43;;
16839;SDS011;8536;52.150;11.572;2022-12-19T14:41:52;16.60;;;11.10;;
16839;SDS011;8536;52.150;11.572;2022-12-19T14:44:48;17.13;;;10.77;;
16839;SDS011;8536;52.150;11.572;2022-12-19T14:47:37;17.67;;;10.73;;
16839;SDS011;8536;52.150;11.572;2022-12-19T14:50:46;17.23;;;11.27;;
16839;SDS011;8536;52.150;11.572;2022-12-19T14:53:31;17.93;;;10.70;;
16839;SDS011;8536;52.150;11.572;2022-12-19T14:56:18;21.80;;;12.20;;
16839;SDS011;8536;52.150;11.572;2022-12-19T14:59:40;21.77;;;11.97;;
16839;SDS011;8536;52.150;11.572;2022-12-19T15:04:38;19.83;;;12.63;;
16839;SDS011;8536;52.150;11.572;2022-12-19T15:07:23;18.17;;;11.50;;
16839;SDS011;8536;52.150;11.572;2022-12-19T15:10:02;18.70;;;11.33;;
16839;SDS011;8536;52.150;11.572;2022-12-19T15:16:05;19.40;;;11.53;;
16839;SDS011;8536;52.150;11.572;2022-12-19T15:21:00;20.07;;;11.23;;
16839;SDS011;8536;52.150;11.572;2022-12-19T15:23:31;18.03;;;11.07;;
16839;SDS011;8536;52.150;11.572;2022-12-19T15:26:02;15.77;;;11.00;;
16839;SDS011;8536;52.150;11.572;2022-12-19T15:28:36;20.33;;;11.50;;
16839;SDS011;8536;52.150;11.572;2022-12-19T15:31:06;20.67;;;12.40;;
16839;SDS011;8536;52.150;11.572;2022-12-19T15:33:38;17.27;;;11.17;;
16839;SDS011;8536;52.150;11.572;2022-12-19T15:36:24;14.63;;;10.13;;
16839;SDS011;8536;52.150;11.572;2022-12-19T15:38:52;20.43;;;12.03;;
16839;SDS011;8536;52.150;11.572;2022-12-19T15:41:20;18.87;;;12.07;;
16839;SDS011;8536;52.150;11.572;2022-12-19T15:43:49;19.40;;;11.77;;
16839;SDS011;8536;52.150;11.572;2022-12-19T15:46:29;20.27;;;12.67;;
16839;SDS011;8536;52.150;11.572;2022-12-19T15:48:56;20.63;;;11.97;;
16839;SDS011;8536;52.150;11.572;2022-12-19T15:51:23;19.37;;;11.60;;
16839;SDS011;8536;52.150;11.572;2022-12-19T15:53:49;19.23;;;11.93;;
16839;SDS011;8536;52.150;11.572;2022-12-19T15:56:23;20.17;;;12.40;;
16839;SDS011;8536;52.150;11.572;2022-12-19T15:58:52;17.90;;;11.57;;
16839;SDS011;8536;52.150;11.572;2022-12-19T16:01:20;16.80;;;11.50;;
16839;SDS011;8536;52.150;11.572;2022-12-19T16:03:47;19.07;;;11.53;;
16839;SDS011;8536;52.150;11.572;2022-12-19T16:06:14;15.90;;;11.13;;
16839;SDS011;8536;52.150;11.572;2022-12-19T16:08:40;18.60;;;11.43;;
16839;SDS011;8536;52.150;11.572;2022-12-19T16:11:14;19.97;;;11.00;;
16839;SDS011;8536;52.150;11.572;2022-12-19T16:13:43;18.57;;;11.00;;
16839;SDS011;8536;52.150;11.572;2022-12-19T16:16:10;16.70;;;11.30;;
16839;SDS011;8536;52.150;11.572;2022-12-19T16:18:41;18.00;;;10.57;;
16839;SDS011;8536;52.150;11.572;2022-12-19T16:21:14;18.87;;;11.97;;
16839;SDS011;8536;52.150;11.572;2022-12-19T16:23:43;17.43;;;11.80;;
16839;SDS011;8536;52.150;11.572;2022-12-19T16:26:27;19.80;;;11.40;;
16839;SDS011;8536;52.150;11.572;2022-12-19T16:28:57;17.60;;;11.47;;
16839;SDS011;8536;52.150;11.572;2022-12-19T16:31:24;21.93;;;12.00;;
16839;SDS011;8536;52.150;11.572;2022-12-19T16:33:52;17.77;;;11.77;;
16839;SDS011;8536;52.150;11.572;2022-12-19T16:36:18;17.07;;;11.97;;
16839;SDS011;8536;52.150;11.572;2022-12-19T16:38:45;17.97;;;11.60;;
16839;SDS011;8536;52.150;11.572;2022-12-19T16:41:20;19.57;;;10.90;;
16839;SDS011;8536;52.150;11.572;2022-12-19T16:43:48;21.60;;;11.13;;
16839;SDS011;8536;52.150;11.572;2022-12-19T16:46:16;18.80;;;11.53;;
16839;SDS011;8536;52.150;11.572;2022-12-19T16:48:45;23.50;;;12.90;;
16839;SDS011;8536;52.150;11.572;2022-12-19T16:51:19;16.57;;;10.60;;
16839;SDS011;8536;52.150;11.572;2022-12-19T16:53:48;17.27;;;11.80;;
16839;SDS011;8536;52.150;11.572;2022-12-19T16:56:23;20.07;;;13.00;;
16839;SDS011;8536;52.150;11.572;2022-12-19T16:58:51;19.70;;;12.50;;
16839;SDS011;8536;52.150;11.572;2022-12-19T17:01:17;18.77;;;12.00;;
16839;SDS011;8536;52.150;11.572;2022-12-19T17:03:45;16.20;;;11.13;;